Time;durP1;ratioP1;P1;durP2;ratioP2;P2;SDS_P1;SDS_P2;PMS_P1;PMS_P2;Temp;Humidity;BMP_temperature;BMP_pressure;BME280_temperature;BME280_humidity;BME280_pressure;Samples;Min_cycle;Max_cycle;Signal;HPM_P1;HPM_P2
2022/04/28 00:01:55;;;;;;;12.48;5.85;;;;;;;6.99;92.11;102851.22;5100073;28;20023;-83
2022/04/28 00:04:20;;;;;;;16.58;5.82;;;;;;;7.00;92.71;102852.06;5097745;28;20077;-84
2022/04/28 00:06:45;;;;;;;15.48;6.05;;;;;;;6.94;92.44;102855.06;5082984;27;20083;-84
2022/04/28 00:09:11;;;;;;;18.05;6.28;;;;;;;6.94;92.69;102860.38;5120514;27;20027;-84
2022/04/28 00:11:36;;;;;;;14.68;6.60;;;;;;;6.88;93.08;102865.09;5101829;27;20030;-84
2022/04/28 00:14:02;;;;;;;16.60;6.25;;;;;;;6.85;93.04;102867.91;5120049;27;20059;-84
2022/04/28 00:16:27;;;;;;;15.93;6.30;;;;;;;6.83;92.93;102866.31;5119703;27;20462;-84
2022/04/28 00:18:53;;;;;;;20.52;6.15;;;;;;;6.79;93.05;102867.41;5119880;27;20033;-83
2022/04/28 00:21:19;;;;;;;16.20;5.90;;;;;;;6.76;93.72;102871.09;5116219;27;20385;-83
2022/04/28 00:23:44;;;;;;;13.02;6.03;;;;;;;6.73;93.63;102868.63;5119266;27;20079;-83
2022/04/28 00:26:10;;;;;;;16.25;5.85;;;;;;;6.70;93.75;102866.13;5118862;27;20312;-83
2022/04/28 00:28:35;;;;;;;14.60;6.00;;;;;;;6.68;94.79;102868.88;5084403;27;20031;-83
2022/04/28 00:31:01;;;;;;;15.48;6.47;;;;;;;6.62;94.42;102861.25;5119705;27;20234;-82
2022/04/28 00:33:27;;;;;;;13.00;6.55;;;;;;;6.60;94.33;102862.28;5118670;27;20162;-83
2022/04/28 00:35:53;;;;;;;14.63;5.88;;;;;;;6.58;94.90;102859.69;5118935;27;20027;-83
2022/04/28 00:38:18;;;;;;;11.80;6.05;;;;;;;6.58;94.41;102859.69;5116737;27;20246;-83
2022/04/28 00:40:44;;;;;;;18.02;6.18;;;;;;;6.59;95.01;102863.25;5100653;27;20093;-83
2022/04/28 00:43:18;;;;;;;16.60;6.13;;;;;;;6.52;95.48;102858.25;5118675;27;20019;-82
2022/04/28 00:45:45;;;;;;;16.85;6.28;;;;;;;6.52;95.39;102858.25;5118850;27;20030;-82
2022/04/28 00:50:57;;;;;;;12.55;6.07;;;;;;;6.48;95.97;102870.00;5117464;27;20099;-82
2022/04/28 00:53:26;;;;;;;16.70;6.20;;;;;;;6.41;95.73;102862.44;5116977;27;20466;-82
2022/04/28 00:55:51;;;;;;;16.20;6.80;;;;;;;6.39;96.02;102865.19;5118891;27;20033;-83
2022/04/28 00:58:17;;;;;;;16.92;6.38;;;;;;;6.35;96.11;102861.84;5118507;27;20027;-83
2022/04/28 01:00:43;;;;;;;13.70;6.68;;;;;;;6.27;97.12;102861.41;5118990;27;20027;-82
2022/04/28 01:03:09;;;;;;;17.13;6.53;;;;;;;6.24;96.88;102863.34;5118073;27;20015;-83
2022/04/28 01:05:35;;;;;;;17.58;6.47;;;;;;;6.14;97.26;102861.22;5117101;27;20037;-83
2022/04/28 01:08:00;;;;;;;16.02;7.10;;;;;;;6.16;97.46;102858.44;5117244;27;20027;-82
2022/04/28 01:10:25;;;;;;;13.80;6.28;;;;;;;6.14;97.68;102857.69;5118510;27;20407;-83
2022/04/28 01:12:51;;;;;;;12.40;6.75;;;;;;;6.14;97.95;102871.81;5117821;27;20091;-83
2022/04/28 01:15:16;;;;;;;15.18;6.60;;;;;;;6.11;97.71;102865.81;5118480;27;20167;-83
2022/04/28 01:17:42;;;;;;;14.00;6.25;;;;;;;6.05;98.05;102858.19;5118403;27;20503;-82
2022/04/28 01:20:08;;;;;;;14.07;6.28;;;;;;;6.07;98.42;102859.81;5118817;27;20019;-83
2022/04/28 01:22:33;;;;;;;14.57;6.57;;;;;;;6.06;98.74;102862.53;5100416;27;20031;-82
2022/04/28 01:25:08;;;;;;;16.63;6.80;;;;;;;6.04;98.97;102865.31;5102653;27;20035;-83
2022/04/28 01:27:35;;;;;;;13.10;6.22;;;;;;;5.98;98.79;102863.81;5103221;27;20046;-83
2022/04/28 01:30:00;;;;;;;12.20;6.38;;;;;;;5.96;98.96;102872.81;5120276;27;20027;-82
2022/04/28 01:32:26;;;;;;;13.15;6.05;;;;;;;5.95;99.21;102861.28;5103005;27;20030;-83
2022/04/28 01:34:51;;;;;;;17.83;7.00;;;;;;;5.86;99.13;102856.47;5119910;27;20870;-83
2022/04/28 01:37:17;;;;;;;12.55;6.22;;;;;;;5.86;99.38;102864.44;5119616;27;20015;-83
2022/04/28 01:39:43;;;;;;;13.60;6.78;;;;;;;5.86;99.74;102866.22;5121844;27;20095;-82
2022/04/28 01:42:08;;;;;;;15.20;7.00;;;;;;;5.88;99.77;102865.19;5121427;27;20022;-83
2022/04/28 01:44:34;;;;;;;15.45;6.35;;;;;;;5.82;99.42;102865.50;5121757;27;20034;-84
2022/04/28 01:47:00;;;;;;;11.30;6.25;;;;;;;5.83;99.59;102866.41;5121009;27;20039;-82
2022/04/28 01:49:25;;;;;;;19.45;7.00;;;;;;;5.80;99.44;102867.41;5119595;27;20054;-83
2022/04/28 01:57:18;;;;;;;17.05;7.07;;;;;;;5.69;100.00;102860.00;5120866;28;20046;-83
2022/04/28 01:59:44;;;;;;;15.35;6.72;;;;;;;5.67;100.00;102859.25;5120231;28;20423;-83
2022/04/28 02:02:09;;;;;;;16.77;7.20;;;;;;;5.64;100.00;102858.53;5121209;28;20023;-82
2022/04/28 02:04:34;;;;;;;17.42;6.78;;;;;;;5.64;100.00;102867.34;5120959;28;20059;-82
2022/04/28 02:07:00;;;;;;;14.68;6.53;;;;;;;5.63;100.00;102862.13;5119225;28;20545;-82
2022/04/28 02:09:25;;;;;;;14.65;6.40;;;;;;;5.60;100.00;102871.06;5101748;28;20088;-83
2022/04/28 02:11:50;;;;;;;14.60;6.60;;;;;;;5.53;100.00;102862.59;5121459;28;20027;-82
2022/04/28 02:14:16;;;;;;;14.55;6.72;;;;;;;5.51;100.00;102868.91;5120713;28;20122;-83
2022/04/28 02:16:41;;;;;;;16.25;6.85;;;;;;;5.48;100.00;102867.28;5120227;28;20046;-83
2022/04/28 02:19:06;;;;;;;13.93;6.35;;;;;;;5.46;100.00;102866.47;5122011;28;20054;-82
2022/04/28 02:21:32;;;;;;;16.77;6.45;;;;;;;5.47;100.00;102870.00;5119078;28;20019;-83
2022/04/28 02:23:57;;;;;;;19.70;7.53;;;;;;;5.45;100.00;102858.59;5120814;28;20027;-82
2022/04/28 02:26:22;;;;;;;14.27;6.47;;;;;;;5.44;100.00;102865.69;5120772;28;20027;-83
2022/04/28 02:28:48;;;;;;;15.85;7.00;;;;;;;5.41;100.00;102871.16;5121391;28;20028;-82
2022/04/28 02:31:13;;;;;;;17.33;6.93;;;;;;;5.40;100.00;102864.16;5121287;27;20076;-83
2022/04/28 02:33:39;;;;;;;15.05;6.90;;;;;;;5.36;100.00;102866.09;5125967;27;20031;-84
2022/04/28 02:36:05;;;;;;;13.88;6.80;;;;;;;5.34;100.00;102877.69;5124874;27;20604;-82
2022/04/28 02:38:30;;;;;;;22.60;6.75;;;;;;;5.32;100.00;102874.28;5106439;27;20061;-83
2022/04/28 02:40:56;;;;;;;15.30;6.63;;;;;;;5.30;100.00;102876.16;5125928;27;20074;-83
2022/04/28 02:43:22;;;;;;;15.45;6.90;;;;;;;5.28;100.00;102875.34;5123706;27;20085;-82
2022/04/28 02:45:49;;;;;;;14.95;6.95;;;;;;;5.25;100.00;102870.22;5126067;27;20050;-82
2022/04/28 02:48:15;;;;;;;13.00;6.43;;;;;;;5.20;100.00;102868.66;5125201;27;20019;-82
2022/04/28 02:50:40;;;;;;;15.77;6.85;;;;;;;5.19;100.00;102861.66;5125117;27;20096;-84
2022/04/28 02:53:06;;;;;;;22.88;6.80;;;;;;;5.17;100.00;102863.50;5124379;27;20023;-82
2022/04/28 02:55:32;;;;;;;19.60;7.00;;;;;;;5.13;100.00;102866.41;5122978;27;20030;-82
2022/04/28 02:57:57;;;;;;;19.02;7.38;;;;;;;5.08;100.00;102866.59;5122063;27;20030;-82
2022/04/28 03:00:23;;;;;;;15.27;6.80;;;;;;;5.00;100.00;102858.19;5121291;27;20441;-83
2022/04/28 03:02:49;;;;;;;14.52;6.90;;;;;;;4.99;100.00;102864.41;5121054;27;20034;-82
2022/04/28 03:05:14;;;;;;;12.65;6.70;;;;;;;4.98;100.00;102870.63;5120905;27;20082;-83
2022/04/28 03:10:49;;;;;;;14.35;6.65;;;;;;;5.00;100.00;102874.91;5122052;27;20046;-84
2022/04/28 03:13:19;;;;;;;18.83;7.68;;;;;;;5.00;100.00;102866.97;5121022;27;20359;-83
2022/04/28 03:15:46;;;;;;;16.30;6.57;;;;;;;4.98;100.00;102868.00;5102798;27;20554;-83
2022/04/28 03:18:13;;;;;;;16.60;7.25;;;;;;;4.95;100.00;102866.34;5120829;27;20044;-83
2022/04/28 03:20:38;;;;;;;13.57;6.80;;;;;;;4.93;100.00;102862.06;5120656;27;20026;-84
2022/04/28 03:23:04;;;;;;;15.10;6.57;;;;;;;4.92;100.00;102868.28;5118765;27;20027;-83
2022/04/28 03:25:29;;;;;;;18.75;7.72;;;;;;;4.84;100.00;102872.16;5097271;27;20098;-84
2022/04/28 03:27:56;;;;;;;18.33;7.07;;;;;;;4.83;100.00;102878.38;5101346;27;20026;-83
2022/04/28 03:30:22;;;;;;;15.95;7.47;;;;;;;4.80;100.00;102875.03;5099643;27;20376;-83
2022/04/28 03:32:47;;;;;;;19.15;7.03;;;;;;;4.78;100.00;102875.09;5088967;27;20034;-83
2022/04/28 03:35:14;;;;;;;22.55;7.93;;;;;;;4.74;100.00;102862.94;5097939;28;20023;-83
2022/04/28 03:37:39;;;;;;;14.48;7.43;;;;;;;4.72;100.00;102864.81;5079568;28;20556;-83
2022/04/28 03:40:05;;;;;;;17.23;7.45;;;;;;;4.71;100.00;102875.47;5098581;28;20051;-83
2022/04/28 03:42:30;;;;;;;13.60;7.40;;;;;;;4.72;100.00;102872.75;5098880;28;20027;-84
2022/04/28 03:44:56;;;;;;;18.08;7.55;;;;;;;4.72;100.00;102874.53;5083199;27;20060;-83
2022/04/28 03:47:21;;;;;;;17.67;7.60;;;;;;;4.69;100.00;102872.91;5119386;27;20134;-83
2022/04/28 03:49:47;;;;;;;15.50;7.38;;;;;;;4.71;100.00;102873.69;5118825;27;20043;-84
2022/04/28 03:52:12;;;;;;;19.33;7.68;;;;;;;4.72;100.00;102879.81;5108872;27;20129;-84
2022/04/28 03:54:38;;;;;;;14.15;7.50;;;;;;;4.71;100.00;102878.13;5100955;27;20623;-84
2022/04/28 03:57:03;;;;;;;16.77;8.05;;;;;;;4.68;100.00;102871.16;5099130;28;20323;-84
2022/04/28 03:59:29;;;;;;;20.33;8.18;;;;;;;4.65;100.00;102877.47;5101666;27;20058;-84
2022/04/28 04:01:54;;;;;;;19.15;8.07;;;;;;;4.63;100.00;102878.47;5099399;28;20042;-84
2022/04/28 04:04:20;;;;;;;18.83;8.02;;;;;;;4.62;100.00;102874.97;5103666;27;20046;-84
2022/04/28 04:06:45;;;;;;;15.30;7.38;;;;;;;4.59;100.00;102879.56;5093723;28;20089;-84
2022/04/28 04:09:10;;;;;;;17.60;7.78;;;;;;;4.59;100.00;102876.91;5099183;28;20014;-83
2022/04/28 04:11:35;;;;;;;23.05;7.03;;;;;;;4.57;100.00;102884.06;5099276;28;20035;-85
2022/04/28 04:14:01;;;;;;;17.55;7.70;;;;;;;4.51;100.00;102885.19;5099042;28;20538;-84
2022/04/28 04:16:26;;;;;;;19.15;7.38;;;;;;;4.49;100.00;102884.41;5080171;28;20701;-84
2022/04/28 04:18:51;;;;;;;17.85;7.47;;;;;;;4.42;100.00;102881.19;5099143;28;20034;-84
2022/04/28 04:21:19;;;;;;;19.15;7.70;;;;;;;4.42;100.00;102891.78;5096140;28;20251;-83
2022/04/28 04:23:44;;;;;;;22.27;8.38;;;;;;;4.45;100.00;102880.19;5098717;28;20051;-83
2022/04/28 04:26:10;;;;;;;22.30;8.50;;;;;;;4.48;100.00;102885.31;5079428;28;20062;-81
2022/04/28 04:28:35;;;;;;;15.93;7.45;;;;;;;4.52;100.00;102888.72;5117203;27;20023;-82
2022/04/28 04:33:44;;;;;;;21.48;8.00;;;;;;;4.55;100.00;102883.25;5119919;27;20054;-82
2022/04/28 04:36:09;;;;;;;20.08;8.27;;;;;;;4.58;100.00;102891.94;5098076;27;20310;-82
2022/04/28 04:38:35;;;;;;;20.08;8.50;;;;;;;4.57;100.00;102881.41;5120016;27;20033;-83
2022/04/28 04:41:00;;;;;;;22.30;8.40;;;;;;;4.63;100.00;102894.34;5118613;27;20524;-82
2022/04/28 04:43:25;;;;;;;24.40;8.40;;;;;;;4.62;100.00;102896.16;5118912;27;20520;-82
2022/04/28 04:45:51;;;;;;;19.25;8.77;;;;;;;4.70;100.00;102894.91;5100795;27;20095;-83
2022/04/28 04:48:16;;;;;;;18.67;8.50;;;;;;;4.70;100.00;102902.88;5118767;27;20023;-82
2022/04/28 04:50:41;;;;;;;18.85;8.43;;;;;;;4.74;100.00;102913.25;5116569;27;20047;-82
2022/04/28 04:53:07;;;;;;;22.83;8.13;;;;;;;4.77;100.00;102915.75;5118543;27;20029;-82
2022/04/28 04:55:42;;;;;;;27.52;8.82;;;;;;;4.78;100.00;102917.44;5118223;27;20015;-84
2022/04/28 04:58:07;;;;;;;27.88;8.68;;;;;;;4.79;100.00;102903.28;5119763;27;20448;-84
2022/04/28 05:00:33;;;;;;;33.00;9.43;;;;;;;4.84;100.00;102908.38;5097746;27;20027;-83
2022/04/28 05:02:58;;;;;;;30.48;8.75;;;;;;;4.85;100.00;102918.03;5101012;27;20052;-83
2022/04/28 05:05:23;;;;;;;18.00;8.43;;;;;;;4.88;100.00;102909.94;5118034;27;20035;-83
2022/04/28 05:07:49;;;;;;;21.48;8.63;;;;;;;4.92;100.00;102910.66;5103873;27;20066;-82
2022/04/28 05:10:14;;;;;;;24.65;9.48;;;;;;;4.94;100.00;102909.66;5098116;28;20148;-82
2022/04/28 05:12:39;;;;;;;21.98;8.80;;;;;;;4.98;100.00;102913.84;5078179;28;20023;-83
2022/04/28 05:15:05;;;;;;;24.80;9.10;;;;;;;5.01;100.00;102918.16;5098561;28;20494;-84
2022/04/28 05:17:30;;;;;;;18.08;8.60;;;;;;;5.06;100.00;102926.75;5097895;28;20031;-84
2022/04/28 05:20:00;;;;;;;23.55;9.65;;;;;;;5.08;100.00;102924.03;5079018;28;20456;-85
2022/04/28 05:22:25;;;;;;;18.80;9.05;;;;;;;5.12;100.00;102933.53;5077456;28;20024;-82
2022/04/28 05:24:51;;;;;;;23.35;9.43;;;;;;;5.14;100.00;102927.25;5098579;28;20028;-81
2022/04/28 05:27:16;;;;;;;21.02;8.90;;;;;;;5.19;100.00;102929.66;5079151;28;20494;-82
2022/04/28 05:29:41;;;;;;;20.80;8.93;;;;;;;5.26;100.00;102938.16;5078826;28;20123;-82
2022/04/28 05:32:07;;;;;;;23.10;9.30;;;;;;;5.28;100.00;102942.47;5094439;27;21011;-82
2022/04/28 05:34:32;;;;;;;21.65;9.60;;;;;;;5.34;100.00;102939.50;5100736;27;20377;-81
2022/04/28 05:36:58;;;;;;;19.00;9.43;;;;;;;5.38;100.00;102941.06;5117349;27;20042;-83
2022/04/28 05:39:25;;;;;;;21.65;9.07;;;;;;;5.41;100.00;102940.03;5118211;27;20561;-82
2022/04/28 05:41:50;;;;;;;19.83;9.45;;;;;;;5.44;100.00;102950.50;5118566;27;20039;-82
2022/04/28 05:46:59;;;;;;;21.60;9.35;;;;;;;5.60;100.00;102959.41;5118153;27;20042;-83
2022/04/28 05:49:25;;;;;;;23.63;9.27;;;;;;;5.65;100.00;102963.63;5117823;27;20416;-83
2022/04/28 05:51:52;;;;;;;22.20;9.35;;;;;;;5.67;100.00;102965.28;5117159;27;20061;-83
2022/04/28 05:54:17;;;;;;;19.88;9.55;;;;;;;5.71;100.00;102968.63;5086910;28;20478;-83
2022/04/28 05:56:43;;;;;;;28.92;10.52;;;;;;;5.77;100.00;102976.25;5117427;27;20019;-82
2022/04/28 05:59:10;;;;;;;22.15;9.95;;;;;;;5.83;100.00;102970.66;5138379;27;20023;-82
2022/04/28 06:01:37;;;;;;;25.23;9.77;;;;;;;5.85;100.00;102970.56;5135941;27;20239;-82
2022/04/28 06:04:03;;;;;;;20.52;9.10;;;;;;;5.97;100.00;102981.47;5106553;28;20035;-82
2022/04/28 06:06:29;;;;;;;19.58;9.82;;;;;;;6.06;100.00;102973.94;5108578;27;20114;-82
2022/04/28 06:08:54;;;;;;;17.55;9.50;;;;;;;6.14;100.00;102977.94;5112220;27;20115;-82
2022/04/28 06:11:19;;;;;;;21.85;10.07;;;;;;;6.24;100.00;102985.41;5107182;27;20106;-82
2022/04/28 06:13:44;;;;;;;23.05;10.15;;;;;;;6.28;100.00;102987.84;5101469;28;20482;-82
2022/04/28 06:16:10;;;;;;;25.00;9.90;;;;;;;6.39;100.00;102989.06;5104282;27;20049;-83
2022/04/28 06:18:35;;;;;;;23.80;9.82;;;;;;;6.44;100.00;102992.34;5112623;27;20031;-82
2022/04/28 06:21:00;;;;;;;26.77;9.98;;;;;;;6.51;100.00;102986.59;5089076;27;20505;-82
2022/04/28 06:23:26;;;;;;;24.70;9.85;;;;;;;6.61;100.00;103002.91;5109878;27;20019;-82
2022/04/28 06:25:51;;;;;;;21.02;10.32;;;;;;;6.64;100.00;103000.09;5110979;27;20085;-83
2022/04/28 06:28:16;;;;;;;22.58;9.85;;;;;;;6.70;100.00;103002.44;5121252;27;20489;-83
2022/04/28 06:30:42;;;;;;;26.38;10.27;;;;;;;6.79;100.00;102989.56;5105167;27;20019;-83
2022/04/28 06:33:10;;;;;;;25.70;10.38;;;;;;;6.89;100.00;103007.59;5101468;28;20121;-83
2022/04/28 06:35:36;;;;;;;17.40;9.68;;;;;;;6.99;100.00;103004.44;5109911;27;20530;-83
2022/04/28 06:38:02;;;;;;;24.95;10.00;;;;;;;7.06;100.00;103006.69;5121220;27;20114;-83
2022/04/28 06:40:28;;;;;;;23.08;10.02;;;;;;;7.11;100.00;103003.75;5122072;27;20046;-83
2022/04/28 06:42:54;;;;;;;23.52;11.07;;;;;;;7.21;100.00;103006.75;5121668;27;20114;-83
2022/04/28 06:45:19;;;;;;;22.20;9.23;;;;;;;7.28;100.00;103008.13;5121512;27;20440;-83
2022/04/28 06:47:44;;;;;;;24.63;10.20;;;;;;;7.42;100.00;103004.69;5102041;27;20053;-83
2022/04/28 06:50:10;;;;;;;28.52;9.90;;;;;;;7.54;100.00;103003.16;5120865;27;20336;-84
2022/04/28 06:52:37;;;;;;;25.83;10.02;;;;;;;7.68;100.00;103005.00;5121227;27;20035;-83
2022/04/28 06:55:04;;;;;;;21.85;9.95;;;;;;;7.82;100.00;103008.59;5121540;27;20077;-83
2022/04/28 06:57:30;;;;;;;19.02;9.75;;;;;;;7.89;100.00;103014.41;5120868;27;20075;-83
2022/04/28 06:59:55;;;;;;;28.25;9.85;;;;;;;7.95;99.36;103013.19;5121873;27;20026;-83
2022/04/28 07:02:21;;;;;;;20.95;9.95;;;;;;;8.05;100.00;103026.81;5120264;27;20031;-83
2022/04/28 07:04:47;;;;;;;20.92;10.13;;;;;;;8.22;99.46;103032.81;5120419;27;20031;-83
2022/04/28 07:07:13;;;;;;;23.13;9.65;;;;;;;8.31;97.22;103027.91;5119460;27;20023;-83
2022/04/28 07:09:38;;;;;;;23.15;9.77;;;;;;;8.44;97.59;103031.56;5121666;27;20031;-83
2022/04/28 07:12:04;;;;;;;21.42;9.25;;;;;;;8.64;96.32;103034.81;5121455;27;20026;-83
2022/04/28 07:14:29;;;;;;;22.30;9.27;;;;;;;8.77;95.80;103030.44;5102340;27;20065;-83
2022/04/28 07:16:54;;;;;;;18.77;9.10;;;;;;;8.94;95.29;103038.25;5120625;27;20115;-81
2022/04/28 07:19:20;;;;;;;27.38;9.45;;;;;;;9.10;93.79;103045.28;5119707;27;20015;-82
2022/04/28 07:21:45;;;;;;;19.63;8.95;;;;;;;9.22;91.44;103048.97;5101010;27;20500;-82
2022/04/28 07:24:10;;;;;;;23.13;9.18;;;;;;;9.30;92.45;103047.53;5101662;27;20552;-82
2022/04/28 07:26:36;;;;;;;22.13;8.95;;;;;;;9.36;90.79;103045.41;5121224;27;20023;-82
2022/04/28 07:29:01;;;;;;;18.40;8.35;;;;;;;9.55;91.50;103053.91;5120635;27;20035;-81
2022/04/28 07:31:27;;;;;;;24.20;9.15;;;;;;;9.66;90.01;103051.41;5120377;27;20083;-81
2022/04/28 07:33:52;;;;;;;21.52;9.10;;;;;;;9.82;90.21;103051.25;5120165;27;20019;-82
2022/04/28 07:36:18;;;;;;;19.00;8.32;;;;;;;10.00;89.71;103054.50;5118460;27;20049;-81
2022/04/28 07:38:44;;;;;;;20.27;8.50;;;;;;;10.14;87.40;103055.41;5122015;27;20462;-82
2022/04/28 07:41:09;;;;;;;19.23;8.23;;;;;;;10.25;86.38;103050.16;5120511;27;20080;-81
2022/04/28 07:43:35;;;;;;;20.52;8.40;;;;;;;10.36;86.29;103057.50;5102561;27;20019;-82
2022/04/28 07:46:00;;;;;;;20.90;8.05;;;;;;;10.40;84.86;103065.22;5120971;27;20030;-81
2022/04/28 07:48:25;;;;;;;21.52;8.80;;;;;;;10.48;83.11;103062.00;5121003;27;20019;-82
2022/04/28 07:50:51;;;;;;;17.27;8.50;;;;;;;10.61;83.78;103067.34;5117823;27;20055;-82
2022/04/28 07:53:17;;;;;;;16.95;7.78;;;;;;;10.67;82.89;103064.25;5101102;27;20007;-82
2022/04/28 07:55:42;;;;;;;19.40;7.57;;;;;;;10.71;82.24;103070.22;5120745;27;20534;-82
2022/04/28 07:58:08;;;;;;;20.38;8.07;;;;;;;10.77;81.73;103075.16;5119478;27;20015;-82
2022/04/28 08:00:33;;;;;;;22.33;8.63;;;;;;;10.90;84.26;103075.16;5120412;27;20023;-81
2022/04/28 08:02:59;;;;;;;20.88;8.18;;;;;;;11.00;81.88;103073.53;5120456;27;20460;-82
2022/04/28 08:05:25;;;;;;;19.27;8.18;;;;;;;11.13;82.75;103086.88;5117197;27;20035;-83
2022/04/28 08:07:50;;;;;;;24.00;8.50;;;;;;;11.17;81.38;103083.88;5119230;27;20023;-81
2022/04/28 08:10:15;;;;;;;18.30;8.32;;;;;;;11.18;79.72;103088.28;5101138;27;20395;-81
2022/04/28 08:12:41;;;;;;;19.67;7.05;;;;;;;11.24;79.17;103089.63;5119943;27;20562;-81
2022/04/28 08:15:07;;;;;;;18.48;7.22;;;;;;;11.36;76.72;103090.56;5120498;27;20027;-81
2022/04/28 08:17:33;;;;;;;19.88;7.90;;;;;;;11.51;76.31;103089.47;5101275;27;20121;-82
2022/04/28 08:19:59;;;;;;;21.70;7.30;;;;;;;11.63;76.21;103093.06;5118030;27;20098;-82
2022/04/28 08:22:24;;;;;;;16.08;7.35;;;;;;;11.83;77.07;103094.28;5117861;27;20502;-82
2022/04/28 08:24:49;;;;;;;22.15;7.43;;;;;;;11.99;74.71;103095.84;5119799;27;20320;-82
2022/04/28 08:27:15;;;;;;;16.88;7.78;;;;;;;12.10;75.77;103096.75;5119380;27;20034;-82
2022/04/28 08:29:40;;;;;;;21.33;7.70;;;;;;;12.27;74.61;103103.50;5118612;27;20038;-81
2022/04/28 08:32:07;;;;;;;17.02;6.82;;;;;;;12.35;72.59;103099.38;5084265;27;20533;-81
2022/04/28 08:34:33;;;;;;;20.38;6.97;;;;;;;12.32;73.43;103100.44;5101098;27;20207;-81
2022/04/28 08:36:58;;;;;;;16.50;6.03;;;;;;;12.32;72.93;103100.44;5116675;27;20027;-82
2022/04/28 08:39:23;;;;;;;20.50;7.45;;;;;;;12.38;72.78;103094.63;5100203;27;20334;-81
2022/04/28 08:41:49;;;;;;;17.27;5.97;;;;;;;12.46;72.20;103094.91;5118602;27;20023;-82
2022/04/28 08:44:22;;;;;;;14.30;6.30;;;;;;;12.58;70.89;103094.94;5118975;27;20125;-81
2022/04/28 08:46:51;;;;;;;23.13;5.95;;;;;;;12.65;70.49;103098.84;5134750;27;20513;-81
2022/04/28 08:49:24;;;;;;;17.23;5.55;;;;;;;12.66;70.10;103097.84;5139036;27;20037;-81
2022/04/28 08:51:57;;;;;;;13.98;5.80;;;;;;;12.75;69.47;103104.34;5137153;27;20030;-81
2022/04/28 08:54:25;;;;;;;20.40;5.75;;;;;;;12.85;69.51;103097.28;5138990;27;20137;-81
2022/04/28 08:56:53;;;;;;;13.15;5.65;;;;;;;12.85;67.27;103100.81;5139201;27;20030;-81
2022/04/28 08:59:19;;;;;;;13.90;5.72;;;;;;;13.00;68.72;103104.13;5139139;27;20049;-82
2022/04/28 09:01:45;;;;;;;23.10;5.90;;;;;;;13.17;68.84;103099.22;5138855;27;20105;-82
2022/04/28 09:04:10;;;;;;;19.58;6.03;;;;;;;13.29;68.06;103095.56;5119332;27;20019;-81
2022/04/28 09:06:39;;;;;;;13.25;5.85;;;;;;;13.49;68.34;103102.00;5118525;27;20033;-82
2022/04/28 09:09:07;;;;;;;16.00;6.00;;;;;;;13.65;68.95;103098.09;5139490;27;20575;-82
2022/04/28 09:11:39;;;;;;;18.05;5.70;;;;;;;13.63;64.72;103098.22;5139423;27;20228;-82
2022/04/28 09:14:13;;;;;;;15.68;5.07;;;;;;;13.35;65.14;103092.41;5120773;27;20298;-81
2022/04/28 09:16:42;;;;;;;15.18;5.20;;;;;;;13.31;64.73;103093.59;5138866;27;20037;-81
2022/04/28 09:19:09;;;;;;;13.15;5.05;;;;;;;13.31;62.74;103088.25;5138634;27;20046;-82
2022/04/28 09:21:35;;;;;;;18.10;5.60;;;;;;;13.51;66.84;103088.47;5137244;27;20075;-82
2022/04/28 09:24:02;;;;;;;16.70;5.32;;;;;;;13.75;64.58;103099.88;5139757;27;20034;-82
2022/04/28 09:26:28;;;;;;;13.57;5.38;;;;;;;13.84;60.23;103098.28;5120882;27;20522;-81
2022/04/28 09:28:53;;;;;;;17.48;5.63;;;;;;;13.83;63.17;103084.97;5138760;27;20022;-82
2022/04/28 09:31:20;;;;;;;16.48;5.47;;;;;;;13.89;62.58;103088.00;5139208;27;20614;-82
2022/04/28 09:33:48;;;;;;;14.80;5.07;;;;;;;13.77;62.60;103089.03;5140212;27;20487;-83
2022/04/28 09:36:14;;;;;;;16.58;4.85;;;;;;;13.88;61.75;103094.34;5137964;27;20795;-82
2022/04/28 09:38:39;;;;;;;13.52;5.50;;;;;;;13.88;63.70;103080.91;5140143;27;20037;-82
2022/04/28 09:43:57;;;;;;;14.25;5.20;;;;;;;14.45;62.77;103070.72;5139936;27;20115;-82
2022/04/28 09:46:26;;;;;;;21.05;6.05;;;;;;;14.55;62.02;103090.47;5124624;27;20038;-82
2022/04/28 09:48:52;;;;;;;11.88;5.50;;;;;;;14.67;60.93;103090.44;5117368;27;20199;-82
2022/04/28 09:51:23;;;;;;;25.63;5.95;;;;;;;14.64;61.39;103088.84;5114625;27;20051;-81
2022/04/28 09:53:51;;;;;;;14.23;5.30;;;;;;;14.84;60.56;103081.75;5096033;28;20764;-82
2022/04/28 09:56:24;;;;;;;17.33;5.72;;;;;;;14.95;58.63;103077.25;5096871;28;20319;-82
2022/04/28 09:58:50;;;;;;;15.75;6.00;;;;;;;15.20;58.58;103084.00;5097147;28;20019;-82
2022/04/28 10:01:15;;;;;;;13.38;6.32;;;;;;;15.39;56.67;103072.44;5078794;28;20019;-82
2022/04/28 10:03:41;;;;;;;19.45;6.05;;;;;;;15.56;56.28;103076.28;5097762;28;20051;-82
2022/04/28 10:06:07;;;;;;;16.08;5.80;;;;;;;15.65;56.01;103076.31;5095923;28;20055;-82
2022/04/28 10:08:35;;;;;;;17.92;5.88;;;;;;;15.65;57.46;103075.47;5097058;28;20051;-82
2022/04/28 10:11:04;;;;;;;15.45;5.80;;;;;;;15.58;56.87;103074.31;5097419;28;20019;-82
2022/04/28 10:13:30;;;;;;;14.82;5.68;;;;;;;15.65;56.05;103062.00;5096986;28;20102;-83
2022/04/28 10:16:00;;;;;;;13.35;5.38;;;;;;;15.61;54.44;103056.06;5074751;28;20495;-82
2022/04/28 10:18:32;;;;;;;17.48;5.97;;;;;;;15.72;56.33;103059.59;5076257;28;20027;-82
2022/04/28 10:21:00;;;;;;;18.55;6.30;;;;;;;15.90;55.87;103057.06;5075004;28;20509;-82
2022/04/28 10:34:58;;;;;;;16.77;6.45;;;;;;;16.20;55.77;103056.06;5075346;28;20046;-83
2022/04/28 10:37:30;;;;;;;17.35;6.65;;;;;;;16.03;51.96;103058.47;5075236;28;20470;-83
2022/04/28 10:39:56;;;;;;;13.15;6.22;;;;;;;16.08;53.03;103058.06;5076684;28;20023;-82
2022/04/28 10:42:42;;;;;;;13.88;6.70;;;;;;;16.24;52.61;103057.47;5075489;28;20016;-82
2022/04/28 10:45:31;;;;;;;14.90;6.72;;;;;;;16.28;52.68;103056.19;5076056;28;20062;-82
2022/04/28 10:48:38;;;;;;;20.33;7.47;;;;;;;16.34;55.65;103044.81;5075602;28;20044;-82
2022/04/28 10:51:12;;;;;;;20.05;7.45;;;;;;;16.49;53.04;103041.66;4972236;28;20323;-82
2022/04/28 10:53:55;;;;;;;14.85;7.00;;;;;;;16.38;53.63;103043.53;4975096;28;20521;-83
2022/04/28 10:56:21;;;;;;;18.02;6.57;;;;;;;16.31;53.89;103036.16;5027372;28;20059;-82
2022/04/28 10:58:46;;;;;;;17.30;6.50;;;;;;;16.26;50.23;103044.69;5080132;28;20016;-82
2022/04/28 11:01:28;;;;;;;15.68;6.55;;;;;;;16.36;54.49;103032.06;5080247;28;20044;-82
2022/04/28 11:03:59;;;;;;;15.73;6.63;;;;;;;16.45;52.71;103042.97;5080320;28;20093;-82
2022/04/28 11:06:34;;;;;;;23.52;6.55;;;;;;;16.83;51.86;103046.50;5077203;28;20508;-83
2022/04/28 11:09:02;;;;;;;20.27;7.75;;;;;;;16.94;52.25;103041.81;5080042;28;20374;-82
2022/04/28 11:11:41;;;;;;;16.23;7.60;;;;;;;16.65;48.55;103036.50;5079281;28;20035;-82
2022/04/28 11:14:08;;;;;;;16.23;7.63;;;;;;;16.86;54.86;103027.34;5079908;28;20110;-82
2022/04/28 11:16:33;;;;;;;14.80;7.80;;;;;;;16.99;49.45;103024.28;5088967;28;20482;-83
2022/04/28 11:18:59;;;;;;;19.65;7.38;;;;;;;17.13;50.60;103027.34;5100423;28;20027;-82
2022/04/28 11:21:24;;;;;;;13.15;7.47;;;;;;;17.41;52.92;103026.47;5097601;28;20555;-82
2022/04/28 11:23:51;;;;;;;16.95;7.63;;;;;;;17.43;49.98;103027.16;5081885;28;20063;-82
2022/04/28 11:26:18;;;;;;;16.10;7.20;;;;;;;17.41;52.18;103030.00;5080924;28;20285;-82
2022/04/28 11:28:44;;;;;;;14.60;7.60;;;;;;;17.47;48.54;103025.84;5100401;28;20024;-82
2022/04/28 11:31:15;;;;;;;17.65;8.30;;;;;;;17.28;46.86;103026.84;5098796;28;20087;-83
2022/04/28 11:33:45;;;;;;;;;;;;;;;17.49;50.92;103029.25;5099855;28;20168;-82
2022/04/28 11:36:24;;;;;;;13.53;7.87;;;;;;;17.58;49.09;103031.00;5097491;28;19914;-82
2022/04/28 11:38:55;;;;;;;18.23;7.68;;;;;;;17.50;49.87;103022.84;5099462;28;20050;-82
2022/04/28 11:41:28;;;;;;;17.90;7.13;;;;;;;17.59;48.16;103034.59;5098666;28;20023;-82
2022/04/28 11:43:53;;;;;;;18.75;7.60;;;;;;;17.49;46.82;103029.25;5099947;28;20034;-81
2022/04/28 11:46:19;;;;;;;15.38;7.32;;;;;;;17.33;45.27;103024.53;5098838;28;20027;-83
2022/04/28 11:48:45;;;;;;;15.02;6.95;;;;;;;17.40;46.98;103033.72;5099626;28;20371;-82